Time;durP1;ratioP1;P1;durP2;ratioP2;P2;SDS_P1;SDS_P2;PMS_P1;PMS_P2;Temp;Humidity;BMP_temperature;BMP_pressure;BME280_temperature;BME280_humidity;BME280_pressure;Samples;Min_cycle;Max_cycle;Signal;HPM_P1;HPM_P2
2021/09/27 00:02:11;;;;;;;15.57;13.18;;;;;;;16.69;nan;100671.03;5069767;28;20048;-76
2021/09/27 00:04:36;;;;;;;17.75;13.82;;;;;;;16.60;nan;100666.81;5051694;28;20132;-76
2021/09/27 00:07:02;;;;;;;15.60;12.93;;;;;;;16.53;nan;100665.91;5052395;28;20029;-75
2021/09/27 00:09:32;;;;;;;14.50;12.18;;;;;;;16.50;nan;100667.13;5070359;28;20132;-76
2021/09/27 00:12:10;;;;;;;;;;;;;;;16.49;nan;100676.16;5046962;28;20025;-75
2021/09/27 00:14:36;;;;;;;16.80;13.50;;;;;;;16.42;nan;100671.72;5069824;28;19916;-76
2021/09/27 00:17:06;;;;;;;10.67;9.67;;;;;;;16.46;nan;100675.69;5051119;28;20419;-75
2021/09/27 00:19:32;;;;;;;14.23;12.68;;;;;;;16.38;nan;100681.97;5053777;28;20081;-76
2021/09/27 00:21:57;;;;;;;14.80;12.85;;;;;;;16.39;nan;100693.47;5052893;28;20029;-76
2021/09/27 00:24:22;;;;;;;17.48;14.38;;;;;;;16.44;nan;100678.53;5069084;28;20036;-76
2021/09/27 00:26:48;;;;;;;16.67;14.75;;;;;;;16.48;nan;100689.69;5051697;28;20032;-75
2021/09/27 00:29:14;;;;;;;18.50;14.70;;;;;;;16.59;nan;100681.19;5053300;28;20096;-76
2021/09/27 00:31:40;;;;;;;16.58;14.57;;;;;;;16.63;nan;100682.44;5051517;28;20596;-76
2021/09/27 00:34:05;;;;;;;19.00;14.77;;;;;;;16.64;nan;100684.13;5053488;28;20061;-76
2021/09/27 00:36:31;;;;;;;18.50;15.35;;;;;;;16.65;nan;100677.75;5069881;28;20439;-75
2021/09/27 00:38:56;;;;;;;16.63;13.95;;;;;;;16.61;nan;100679.13;5069665;28;20146;-75
2021/09/27 00:41:23;;;;;;;18.08;14.50;;;;;;;16.64;nan;100678.78;5051281;28;20029;-76
2021/09/27 00:43:49;;;;;;;17.95;14.05;;;;;;;16.57;nan;100685.88;5070013;28;20366;-76
2021/09/27 00:46:19;;;;;;;17.73;14.60;;;;;;;16.56;nan;100679.72;5069761;28;20205;-76
2021/09/27 00:48:45;;;;;;;15.15;13.05;;;;;;;16.49;nan;100680.63;5062972;28;20028;-76
2021/09/27 00:51:15;;;;;;;18.10;14.13;;;;;;;16.43;nan;100670.72;5069954;28;20040;-76
2021/09/27 00:53:52;;;;;;;17.10;14.25;;;;;;;16.31;nan;100673.03;5051466;28;20481;-76
2021/09/27 00:56:24;;;;;;;17.38;13.75;;;;;;;16.30;nan;100682.91;5069279;28;20045;-75
2021/09/27 00:58:50;;;;;;;17.45;14.48;;;;;;;16.25;nan;100677.25;5051621;28;20120;-76
2021/09/27 01:01:16;;;;;;;17.75;14.38;;;;;;;16.27;nan;100682.41;5070076;28;20162;-76
2021/09/27 01:03:42;;;;;;;21.35;15.90;;;;;;;16.35;nan;100691.16;5055886;28;20039;-76
2021/09/27 01:06:23;;;;;;;19.38;15.23;;;;;;;16.36;nan;100681.31;5073050;28;20502;-76
2021/09/27 01:08:51;;;;;;;19.35;14.38;;;;;;;16.35;nan;100675.16;5073797;28;20520;-76
2021/09/27 01:11:47;;;;;;;19.42;15.68;;;;;;;16.36;nan;100675.97;5073461;28;20459;-76
2021/09/27 01:14:30;;;;;;;19.50;16.02;;;;;;;16.29;nan;100675.06;5070792;28;20056;-76
2021/09/27 01:17:28;;;;;;;18.25;14.75;;;;;;;16.21;nan;100668.00;5073165;28;20669;-76
2021/09/27 01:20:15;;;;;;;18.00;15.48;;;;;;;16.24;nan;100675.63;5055770;28;20025;-76
2021/09/27 01:22:58;;;;;;;20.17;15.38;;;;;;;16.32;nan;100672.84;5044625;28;20033;-76
2021/09/27 01:25:38;;;;;;;17.73;15.35;;;;;;;16.36;nan;100675.97;5068578;28;20135;-76
2021/09/27 01:28:26;;;;;;;23.15;16.55;;;;;;;16.36;nan;100675.97;5070682;28;20055;-76
2021/09/27 01:31:30;;;;;;;20.42;15.68;;;;;;;16.36;nan;100675.97;5054794;28;20051;-76
2021/09/27 01:34:04;;;;;;;20.27;16.08;;;;;;;16.37;nan;100666.13;5074969;28;20037;-76
2021/09/27 01:36:51;;;;;;;17.60;13.68;;;;;;;16.28;nan;100655.56;5054667;28;20613;-78
2021/09/27 01:39:40;;;;;;;;;;;;;;;16.29;nan;100657.22;5069313;28;20028;-76
2021/09/27 01:42:21;;;;;;;;;;;;;;;16.28;nan;100658.22;5049312;28;19967;-76
2021/09/27 01:44:49;;;;;;;20.05;15.48;;;;;;;16.25;nan;100655.91;5072671;28;19916;-76
2021/09/27 01:47:22;;;;;;;;;;;;;;;16.21;nan;100653.81;5073421;28;20037;-77
2021/09/27 01:49:57;;;;;;;19.08;14.48;;;;;;;16.19;nan;100651.34;5076625;28;20377;-76
2021/09/27 01:52:38;;;;;;;13.48;12.07;;;;;;;16.30;nan;100648.22;5070804;28;20436;-76
2021/09/27 01:55:31;;;;;;;15.13;13.30;;;;;;;16.21;nan;100646.66;5054617;28;20528;-76
2021/09/27 01:58:16;;;;;;;18.08;13.35;;;;;;;16.19;nan;100646.00;5072972;28;20052;-76
2021/09/27 02:01:01;;;;;;;15.60;12.90;;;;;;;16.16;nan;100646.38;5054415;28;20052;-76
2021/09/27 02:03:35;;;;;;;16.50;13.38;;;;;;;16.11;nan;100646.09;5072400;28;20047;-76
2021/09/27 02:06:44;;;;;;;13.60;11.50;;;;;;;16.12;nan;100647.75;5072501;28;20512;-77
2021/09/27 02:09:16;;;;;;;13.57;11.68;;;;;;;16.08;nan;100647.28;5012113;28;20448;-76
2021/09/27 02:11:47;;;;;;;16.42;14.25;;;;;;;16.01;nan;100654.38;5071930;28;20488;-75
2021/09/27 02:14:24;;;;;;;15.10;13.10;;;;;;;15.99;nan;100644.91;5073979;28;20444;-75
2021/09/27 02:17:02;;;;;;;13.65;11.52;;;;;;;16.00;nan;100643.91;5079891;28;20044;-76
2021/09/27 02:19:42;;;;;;;13.27;10.52;;;;;;;15.99;nan;100652.91;5041952;28;20033;-75
2021/09/27 02:22:21;;;;;;;12.93;11.13;;;;;;;16.02;nan;100644.56;5053883;28;20040;-75
2021/09/27 02:25:21;;;;;;;12.73;10.70;;;;;;;16.01;nan;100648.22;5072423;28;20040;-75
2021/09/27 02:27:50;;;;;;;13.90;11.15;;;;;;;15.94;nan;100653.44;5046195;28;20037;-76
2021/09/27 02:30:24;;;;;;;16.27;13.77;;;;;;;15.85;nan;100663.41;5052923;28;20029;-75
2021/09/27 02:33:09;;;;;;;15.60;12.65;;;;;;;15.79;nan;100661.44;5074429;28;20058;-75
2021/09/27 02:36:01;;;;;;;10.70;9.55;;;;;;;15.75;nan;100667.31;5055300;28;20438;-75
2021/09/27 02:38:35;;;;;;;11.18;9.80;;;;;;;15.73;nan;100658.69;5049225;28;20044;-75
2021/09/27 02:41:39;;;;;;;12.45;10.82;;;;;;;15.68;nan;100669.84;5072392;28;20036;-75
2021/09/27 02:44:05;;;;;;;14.25;11.60;;;;;;;15.64;nan;100677.41;4999891;28;20033;-75
2021/09/27 02:46:32;;;;;;;12.07;10.45;;;;;;;15.65;nan;100665.72;5054395;28;20433;-76
2021/09/27 02:49:10;;;;;;;10.95;9.48;;;;;;;15.72;nan;100663.19;5072347;28;20066;-76
2021/09/27 02:51:43;;;;;;;8.32;7.53;;;;;;;15.83;nan;100668.06;5071787;28;20404;-76
2021/09/27 02:54:10;;;;;;;10.70;8.85;;;;;;;15.87;nan;100671.19;5053364;28;20035;-76
2021/09/27 02:56:54;;;;;;;10.30;8.20;;;;;;;15.85;nan;100660.72;5054878;28;20045;-76
2021/09/27 02:59:57;;;;;;;12.73;10.32;;;;;;;15.85;nan;100666.06;5072845;28;20222;-76
2021/09/27 03:02:36;;;;;;;13.75;11.02;;;;;;;15.83;nan;100668.06;5068552;28;20338;-76
2021/09/27 03:05:05;;;;;;;11.32;10.00;;;;;;;15.84;nan;100669.72;5071687;28;20029;-76
2021/09/27 03:07:37;;;;;;;13.55;10.55;;;;;;;15.88;nan;100667.53;5071986;28;20125;-76
2021/09/27 03:10:11;;;;;;;13.45;11.57;;;;;;;15.85;nan;100665.22;5072224;28;20035;-76
2021/09/27 03:12:53;;;;;;;13.75;10.73;;;;;;;15.86;nan;100664.22;5070101;28;20048;-76
2021/09/27 03:15:36;;;;;;;12.48;10.27;;;;;;;15.85;nan;100659.88;5054344;28;20428;-76
2021/09/27 03:18:11;;;;;;;11.07;9.25;;;;;;;15.83;nan;100654.75;5070303;28;20032;-74
2021/09/27 03:21:04;;;;;;;10.07;8.23;;;;;;;15.85;nan;100651.88;5053491;28;20035;-75
2021/09/27 03:23:38;;;;;;;9.88;8.35;;;;;;;15.84;nan;100655.56;5070688;28;20100;-75
2021/09/27 03:26:25;;;;;;;11.05;9.60;;;;;;;15.75;nan;100652.16;5067788;28;20036;-75
2021/09/27 03:28:58;;;;;;;13.85;10.50;;;;;;;15.74;nan;100655.84;5071285;28;20036;-75
2021/09/27 03:31:45;;;;;;;9.75;7.90;;;;;;;15.76;nan;100655.66;5071235;28;20036;-75
2021/09/27 03:34:40;;;;;;;10.35;8.75;;;;;;;15.79;nan;100658.78;5075625;28;20263;-75
2021/09/27 03:37:44;;;;;;;13.98;9.70;;;;;;;15.84;nan;100661.72;5053713;28;20045;-75
2021/09/27 03:40:31;;;;;;;10.25;8.95;;;;;;;15.79;nan;100652.63;5059497;28;20123;-76
2021/09/27 03:42:56;;;;;;;11.05;8.80;;;;;;;15.81;nan;100656.75;5070665;28;20127;-76
2021/09/27 03:45:29;;;;;;;9.07;7.87;;;;;;;15.77;nan;100655.47;5070169;28;20171;-76
2021/09/27 03:48:05;;;;;;;11.60;9.90;;;;;;;15.72;nan;100649.84;5073681;28;20339;-77
2021/09/27 03:50:43;;;;;;;10.15;8.55;;;;;;;15.80;nan;100654.28;5069769;28;20051;-76
2021/09/27 03:53:13;;;;;;;12.15;9.52;;;;;;;15.81;nan;100656.75;5070444;28;20569;-76
2021/09/27 03:55:53;;;;;;;12.73;9.13;;;;;;;15.81;nan;100647.94;5070785;28;20033;-76
2021/09/27 03:58:21;;;;;;;10.23;9.07;;;;;;;15.80;nan;100649.78;5052445;28;20037;-76
2021/09/27 04:00:56;;;;;;;10.40;8.98;;;;;;;15.76;nan;100647.66;5052482;28;20500;-76
2021/09/27 04:03:28;;;;;;;11.15;9.50;;;;;;;15.70;nan;100649.22;5070814;28;20032;-76
2021/09/27 04:06:07;;;;;;;11.35;9.05;;;;;;;15.73;nan;100648.00;5052578;28;20044;-77
2021/09/27 04:08:54;;;;;;;9.82;8.43;;;;;;;15.71;nan;100637.56;5052251;28;20032;-76
2021/09/27 04:11:46;;;;;;;9.52;7.97;;;;;;;15.67;nan;100644.22;5052082;28;20032;-76
2021/09/27 04:14:17;;;;;;;11.32;9.95;;;;;;;15.62;nan;100638.59;5070765;28;20481;-76
2021/09/27 04:16:43;;;;;;;;;;;;;;;15.59;nan;100636.28;5070253;28;20048;-76
2021/09/27 04:19:25;;;;;;;10.00;8.47;;;;;;;15.57;nan;100633.81;5070450;28;19917;-76
2021/09/27 04:22:14;;;;;;;9.40;7.78;;;;;;;15.55;nan;100641.16;5062231;28;20049;-76
2021/09/27 04:24:58;;;;;;;8.82;7.57;;;;;;;15.53;nan;100640.50;5066234;28;20047;-76
2021/09/27 04:27:48;;;;;;;10.65;8.60;;;;;;;15.53;nan;100643.19;5069949;28;20558;-76
2021/09/27 04:30:19;;;;;;;11.32;9.73;;;;;;;15.48;nan;100643.72;5069339;28;20036;-76
2021/09/27 04:33:08;;;;;;;12.57;9.45;;;;;;;15.46;nan;100642.25;5067332;28;20124;-76
2021/09/27 04:35:52;;;;;;;9.00;7.88;;;;;;;15.54;nan;100641.34;5051462;28;20412;-76
2021/09/27 04:38:19;;;;;;;14.25;9.82;;;;;;;15.54;nan;100644.00;5069842;28;20078;-76
2021/09/27 04:41:22;;;;;;;12.38;10.32;;;;;;;15.48;nan;100635.72;5052430;28;20028;-76
2021/09/27 04:44:26;;;;;;;12.13;9.85;;;;;;;15.39;nan;100644.81;5069445;28;20374;-76
2021/09/27 04:47:29;;;;;;;9.45;8.40;;;;;;;15.33;nan;100640.22;5041342;28;20044;-76
2021/09/27 04:50:15;;;;;;;10.38;8.65;;;;;;;15.26;nan;100641.94;5069531;28;20028;-76
2021/09/27 04:53:01;;;;;;;9.90;8.25;;;;;;;15.23;nan;100652.94;5065259;28;20044;-76
2021/09/27 04:55:45;;;;;;;9.45;8.10;;;;;;;15.19;nan;100649.81;5051461;28;20386;-76
2021/09/27 04:58:16;;;;;;;7.63;6.93;;;;;;;15.21;nan;100647.81;5067577;28;20505;-76
2021/09/27 05:01:07;;;;;;;11.73;9.60;;;;;;;15.28;nan;100648.75;5052525;28;20081;-75
2021/09/27 05:04:08;;;;;;;15.00;11.55;;;;;;;15.29;nan;100650.38;5065816;28;20041;-75
2021/09/27 05:06:58;;;;;;;14.30;11.48;;;;;;;15.31;nan;100650.22;5060192;28;20381;-76
2021/09/27 05:09:42;;;;;;;14.32;11.52;;;;;;;15.31;nan;100650.22;5069079;28;20430;-76
2021/09/27 05:12:31;;;;;;;15.27;11.18;;;;;;;15.29;nan;100641.56;5050634;28;20048;-76
2021/09/27 05:15:01;;;;;;;8.80;7.68;;;;;;;15.33;nan;100652.72;5059431;28;20742;-75
2021/09/27 05:18:15;;;;;;;8.38;7.45;;;;;;;15.31;nan;100652.88;5051035;28;20041;-76
2021/09/27 05:20:59;;;;;;;;;;;;;;;15.27;nan;100654.25;5031032;28;20045;-76
2021/09/27 05:23:29;;;;;;;;;;;;;;;15.21;nan;100652.31;5072919;28;19951;-76
2021/09/27 05:26:07;;;;;;;10.75;9.20;;;;;;;15.18;nan;100658.81;5052282;28;19921;-76
2021/09/27 05:28:48;;;;;;;10.82;9.50;;;;;;;15.15;nan;100661.00;5071290;28;20048;-76
2021/09/27 05:31:52;;;;;;;13.32;10.07;;;;;;;15.21;nan;100657.63;5070270;28;20036;-77
2021/09/27 05:34:37;;;;;;;9.40;8.40;;;;;;;15.25;nan;100667.75;5044622;28;20476;-76
2021/09/27 05:37:28;;;;;;;6.82;6.13;;;;;;;15.21;nan;100661.13;5050721;28;20408;-75
2021/09/27 05:40:08;;;;;;;11.20;8.65;;;;;;;15.20;nan;100667.44;5068290;28;20044;-75
2021/09/27 05:42:55;;;;;;;16.00;12.05;;;;;;;15.29;nan;100678.88;5051681;28;20096;-75
2021/09/27 05:45:22;;;;;;;;;;;;;;;15.21;nan;100669.13;5070158;28;20032;-75
2021/09/27 05:48:06;;;;;;;12.57;9.18;;;;;;;15.23;nan;100668.91;5073445;28;19924;-75
2021/09/27 05:50:43;;;;;;;9.65;8.27;;;;;;;15.35;nan;100671.97;5069051;28;20400;-75
2021/09/27 05:53:28;;;;;;;12.70;10.55;;;;;;;15.38;nan;100671.66;5056463;28;20058;-75
2021/09/27 05:56:37;;;;;;;11.35;8.70;;;;;;;15.45;nan;100672.59;5055987;28;20055;-76
2021/09/27 05:59:05;;;;;;;;;;;;;;;15.64;nan;100674.72;5030616;28;20032;-75
2021/09/27 06:01:40;;;;;;;9.60;7.68;;;;;;;16.01;nan;100665.03;5074652;28;20224;-75
2021/09/27 06:04:25;;;;;;;6.05;5.30;;;;;;;16.48;nan;100665.66;5041990;28;20444;-76
2021/09/27 06:07:15;;;;;;;7.88;6.40;;;;;;;16.73;nan;100672.31;5065585;28;20908;-76
2021/09/27 06:09:55;;;;;;;8.50;7.13;;;;;;;16.57;nan;100669.88;5073996;28;20037;-75
2021/09/27 06:12:30;;;;;;;7.57;6.77;;;;;;;16.45;nan;100671.38;5073122;28;20078;-76
2021/09/27 06:15:02;;;;;;;7.05;5.90;;;;;;;16.68;nan;100674.69;5073339;28;20279;-76
2021/09/27 06:17:36;;;;;;;6.80;5.30;;;;;;;17.12;nan;100672.94;5052852;28;20510;-75
2021/09/27 06:20:14;;;;;;;4.50;3.70;;;;;;;17.71;nan;100682.47;5049166;28;20934;-76
2021/09/27 06:23:14;;;;;;;7.95;6.50;;;;;;;18.22;nan;100682.22;5072786;28;20031;-76
2021/09/27 06:25:51;;;;;;;9.93;7.65;;;;;;;18.70;nan;100679.50;5052944;28;20029;-76
2021/09/27 06:28:22;;;;;;;12.15;9.07;;;;;;;18.91;nan;100685.78;5072155;28;20037;-76
2021/09/27 06:30:51;;;;;;;;;;;;;;;18.54;nan;100677.19;5053189;28;20037;-76
2021/09/27 06:33:28;;;;;;;;;;;;;;;18.00;nan;100671.59;5073590;28;20069;-76
2021/09/27 06:35:54;;;;;;;;;;;;;;;17.70;nan;100670.94;5055607;28;19928;-76
2021/09/27 06:38:28;;;;;;;12.57;10.85;;;;;;;17.59;nan;100672.31;5071494;28;20399;-76
2021/09/27 06:40:54;;;;;;;13.88;10.57;;;;;;;17.70;nan;100662.09;5073746;28;20071;-76
2021/09/27 06:43:22;;;;;;;14.52;11.05;;;;;;;18.08;nan;100659.91;5072802;28;20037;-76
2021/09/27 06:45:48;;;;;;;;;;;;;;;18.55;nan;100652.09;5071641;28;20020;-76
2021/09/27 06:48:14;;;;;;;13.82;9.70;;;;;;;19.24;nan;100659.03;5070985;28;19916;-76
2021/09/27 06:50:40;;;;;;;12.45;9.45;;;;;;;19.83;nan;100652.84;5052944;28;20037;-76
2021/09/27 06:53:06;;;;;;;10.75;9.63;;;;;;;19.97;nan;100645.56;5052132;28;20462;-76
2021/09/27 06:55:31;;;;;;;12.45;9.95;;;;;;;19.82;nan;100639.63;5052449;28;20439;-75
2021/09/27 06:57:57;;;;;;;11.80;9.95;;;;;;;19.47;nan;100634.47;5070486;28;20033;-75
2021/09/27 07:00:23;;;;;;;10.17;9.07;;;;;;;19.39;nan;100634.69;5051384;28;20402;-75
2021/09/27 07:02:48;;;;;;;10.13;9.02;;;;;;;19.15;nan;100636.16;5051798;28;20439;-75
2021/09/27 07:05:13;;;;;;;11.55;9.80;;;;;;;18.94;nan;100637.97;5070949;28;20024;-75
2021/09/27 07:07:40;;;;;;;11.48;9.90;;;;;;;18.82;nan;100640.41;5052648;28;20033;-75
2021/09/27 07:10:08;;;;;;;11.40;9.95;;;;;;;18.70;nan;100627.81;5069813;28;20021;-76
2021/09/27 07:12:34;;;;;;;10.98;9.40;;;;;;;18.64;nan;100638.31;5070141;28;20032;-75
2021/09/27 07:14:59;;;;;;;13.15;9.52;;;;;;;18.59;nan;100642.59;5066209;28;20037;-75
2021/09/27 07:17:25;;;;;;;12.00;9.80;;;;;;;18.67;nan;100629.03;5049134;28;20068;-75
2021/09/27 07:19:50;;;;;;;11.00;9.30;;;;;;;18.70;nan;100633.16;5045389;28;20110;-76
2021/09/27 07:22:16;;;;;;;9.30;8.07;;;;;;;18.74;nan;100629.06;5051959;28;20035;-75
2021/09/27 07:24:41;;;;;;;11.40;9.05;;;;;;;18.92;nan;100631.97;5070869;28;20036;-75
2021/09/27 07:27:06;;;;;;;9.23;7.53;;;;;;;19.04;nan;100640.25;5071107;28;20033;-75
2021/09/27 07:29:31;;;;;;;10.02;6.82;;;;;;;19.35;nan;100638.81;5053103;28;20033;-76
2021/09/27 07:31:57;;;;;;;9.25;7.75;;;;;;;19.86;nan;100651.59;5053311;28;20111;-75
2021/09/27 07:34:22;;;;;;;9.65;7.57;;;;;;;20.36;nan;100646.47;5073125;28;20411;-76
2021/09/27 07:36:48;;;;;;;9.85;7.78;;;;;;;20.83;nan;100654.31;5093241;28;20047;-76
2021/09/27 07:39:14;;;;;;;10.38;7.53;;;;;;;21.24;nan;100652.97;5075268;28;20028;-75
2021/09/27 07:41:40;;;;;;;7.88;7.07;;;;;;;21.62;nan;100658.28;5068260;28;20942;-76
2021/09/27 07:44:07;;;;;;;10.40;7.85;;;;;;;21.95;nan;100654.41;5085848;28;20435;-75
2021/09/27 07:46:32;;;;;;;;;;;;;;;22.38;nan;100661.63;5054163;28;20074;-75
2021/09/27 07:48:58;;;;;;;;;;;;;;;22.63;nan;100661.50;5083860;28;19963;-76
2021/09/27 07:51:24;;;;;;;;;;;;;;;22.54;nan;100671.78;5063143;28;20118;-76
2021/09/27 07:53:50;;;;;;;9.70;7.80;;;;;;;22.60;nan;100664.69;5068556;28;20308;-75
2021/09/27 07:56:16;;;;;;;;;;;;;;;22.15;nan;100665.81;5064842;28;20512;-75
2021/09/27 07:58:41;;;;;;;10.43;8.77;;;;;;;21.78;nan;100664.94;5060558;28;20007;-76
2021/09/27 08:01:06;;;;;;;;;;;;;;;21.09;nan;100658.69;5067320;28;20298;-75
2021/09/27 08:03:31;;;;;;;10.70;8.37;;;;;;;20.57;nan;100656.13;5051793;28;20411;-75
2021/09/27 08:05:57;;;;;;;10.25;9.15;;;;;;;20.12;nan;100661.44;5051301;28;20048;-75
2021/09/27 08:08:22;;;;;;;12.57;9.02;;;;;;;19.89;nan;100665.41;5051598;28;20040;-76
2021/09/27 08:10:48;;;;;;;11.15;9.82;;;;;;;19.65;nan;100666.03;5069900;28;20047;-75
2021/09/27 08:13:15;;;;;;;12.13;9.57;;;;;;;19.50;nan;100664.41;5069937;28;20289;-75
2021/09/27 08:15:44;;;;;;;11.70;8.88;;;;;;;19.23;nan;100662.75;5069325;28;20345;-75
2021/09/27 08:18:13;;;;;;;13.27;9.63;;;;;;;18.99;nan;100667.66;5069214;28;20119;-75
2021/09/27 08:20:46;;;;;;;11.05;9.23;;;;;;;18.86;nan;100671.16;5051911;28;20032;-75
2021/09/27 08:23:11;;;;;;;12.32;9.70;;;;;;;18.79;nan;100670.31;5068973;28;20060;-75
2021/09/27 08:25:38;;;;;;;14.32;10.82;;;;;;;18.70;nan;100667.97;5070173;28;20075;-75
2021/09/27 08:28:05;;;;;;;11.18;9.63;;;;;;;18.57;nan;100671.47;5050689;28;20020;-75
2021/09/27 08:30:38;;;;;;;13.98;9.98;;;;;;;18.54;nan;100671.84;5068745;28;20033;-75
2021/09/27 08:33:05;;;;;;;11.82;9.95;;;;;;;18.41;nan;100683.31;5066208;28;20531;-75
2021/09/27 08:35:32;;;;;;;12.35;10.32;;;;;;;18.39;nan;100677.34;5051121;28;20040;-75
2021/09/27 08:38:01;;;;;;;13.27;10.20;;;;;;;18.43;nan;100675.94;5069896;28;20105;-75
2021/09/27 08:40:57;;;;;;;13.80;11.20;;;;;;;18.46;nan;100684.38;5068742;28;20041;-75
2021/09/27 08:43:56;;;;;;;18.55;11.82;;;;;;;18.39;nan;100682.69;5045924;28;20037;-75
2021/09/27 08:46:29;;;;;;;15.50;10.98;;;;;;;18.20;nan;100685.06;5048457;28;20033;-75
2021/09/27 08:49:16;;;;;;;12.70;10.15;;;;;;;18.33;nan;100678.13;5069927;28;20385;-75
2021/09/27 08:51:43;;;;;;;13.57;9.73;;;;;;;18.47;nan;100677.16;5051608;28;20124;-75
2021/09/27 08:54:14;;;;;;;15.40;11.18;;;;;;;18.60;nan;100684.44;5069905;28;20032;-75
2021/09/27 08:56:54;;;;;;;12.85;10.48;;;;;;;18.56;nan;100689.34;5069600;28;20041;-75
2021/09/27 08:59:29;;;;;;;14.10;10.50;;;;;;;18.63;nan;100686.69;5058615;28;20033;-75
2021/09/27 09:02:28;;;;;;;13.77;10.63;;;;;;;18.60;nan;100677.22;5069167;28;20032;-75
2021/09/27 09:05:07;;;;;;;13.63;10.60;;;;;;;18.66;nan;100671.06;5069705;28;20104;-75
2021/09/27 09:07:41;;;;;;;13.48;11.05;;;;;;;18.66;nan;100665.72;5069351;28;20033;-75
2021/09/27 09:10:08;;;;;;;12.93;10.07;;;;;;;18.70;nan;100671.47;5069771;28;20089;-76
2021/09/27 09:12:37;;;;;;;13.20;10.00;;;;;;;18.74;nan;100670.06;5069239;28;20060;-76
2021/09/27 09:15:07;;;;;;;13.43;9.85;;;;;;;18.74;nan;100671.91;5054905;28;20503;-76
2021/09/27 09:17:45;;;;;;;13.13;10.48;;;;;;;18.84;nan;100661.66;5052371;28;20071;-76
2021/09/27 09:20:21;;;;;;;12.25;9.73;;;;;;;19.01;nan;100662.91;5068940;28;20456;-76
2021/09/27 09:22:49;;;;;;;12.35;9.07;;;;;;;19.24;nan;100667.91;5065144;28;20029;-76
2021/09/27 09:25:25;;;;;;;12.63;9.73;;;;;;;19.33;nan;100673.06;5075269;28;20477;-76
2021/09/27 09:27:51;;;;;;;11.40;9.25;;;;;;;19.20;nan;100672.00;5072877;28;20523;-76
2021/09/27 09:30:18;;;;;;;12.43;9.70;;;;;;;19.26;nan;100673.06;5055201;28;20052;-75
2021/09/27 09:32:43;;;;;;;11.45;9.32;;;;;;;19.20;nan;100668.53;5074351;28;20248;-76
2021/09/27 09:35:23;;;;;;;13.07;9.93;;;;;;;19.22;nan;100663.78;5083436;28;20501;-76
2021/09/27 09:37:55;;;;;;;12.07;9.57;;;;;;;19.08;nan;100671.78;5067019;28;20127;-76
2021/09/27 09:40:27;;;;;;;10.57;8.77;;;;;;;19.20;nan;100672.00;5063560;28;20052;-77
2021/09/27 09:43:05;;;;;;;11.77;9.13;;;;;;;19.35;nan;100671.00;5072559;28;20051;-76
2021/09/27 09:45:35;;;;;;;10.50;9.00;;;;;;;19.37;nan;100661.72;5073782;28;20211;-75
2021/09/27 09:48:23;;;;;;;12.07;8.83;;;;;;;19.34;nan;100662.13;5073276;28;20036;-76
2021/09/27 09:50:51;;;;;;;11.02;8.93;;;;;;;19.58;nan;100660.69;5072466;28;20282;-76
2021/09/27 09:53:26;;;;;;;10.77;8.65;;;;;;;19.81;nan;100664.81;5072444;28;20278;-76
2021/09/27 09:55:53;;;;;;;10.32;8.80;;;;;;;20.04;nan;100658.97;5070935;28;20402;-76
2021/09/27 09:58:44;;;;;;;11.82;9.02;;;;;;;20.11;nan;100668.66;5053787;28;20040;-76
2021/09/27 10:01:33;;;;;;;10.85;8.60;;;;;;;20.32;nan;100667.53;5054122;28;20029;-76
2021/09/27 10:04:24;;;;;;;8.63;7.30;;;;;;;20.31;nan;100659.72;5055604;28;20041;-77
2021/09/27 10:06:56;;;;;;;9.57;7.30;;;;;;;20.31;nan;100659.72;5073167;28;20028;-76
2021/09/27 10:09:29;;;;;;;9.52;7.82;;;;;;;20.36;nan;100654.53;5055766;28;20025;-76
2021/09/27 10:11:59;;;;;;;7.35;6.50;;;;;;;20.52;nan;100654.03;5073263;28;20045;-76
2021/09/27 10:14:34;;;;;;;10.63;7.53;;;;;;;20.64;nan;100645.31;5056676;28;20419;-77
2021/09/27 10:17:11;;;;;;;10.38;7.68;;;;;;;20.74;nan;100648.38;5060810;28;19920;-77
2021/09/27 10:19:51;;;;;;;10.88;7.93;;;;;;;20.71;nan;100652.31;5071078;28;20032;-75
2021/09/27 10:22:23;;;;;;;8.77;7.60;;;;;;;20.74;nan;100656.44;5070951;28;20047;-75
2021/09/27 10:24:53;;;;;;;9.65;7.20;;;;;;;20.70;nan;100645.28;5054007;28;20499;-75
2021/09/27 10:27:43;;;;;;;9.02;6.93;;;;;;;20.94;nan;100643.69;5072347;28;20036;-75
2021/09/27 10:30:18;;;;;;;11.63;6.68;;;;;;;21.03;nan;100638.88;5053882;28;20117;-75
2021/09/27 10:32:58;;;;;;;9.13;7.18;;;;;;;21.07;nan;100640.09;5074330;28;20036;-75
2021/09/27 10:35:45;;;;;;;10.23;7.20;;;;;;;21.30;nan;100638.66;5074833;28;20040;-75
2021/09/27 10:38:24;;;;;;;9.30;5.80;;;;;;;21.26;nan;100641.00;5069386;28;20060;-75
2021/09/27 10:40:50;;;;;;;7.35;6.30;;;;;;;21.16;nan;100637.94;5054737;28;20037;-75
2021/09/27 10:43:19;;;;;;;9.32;6.75;;;;;;;21.31;nan;100640.31;5072211;28;20412;-75
2021/09/27 10:45:49;;;;;;;9.02;6.55;;;;;;;21.34;nan;100638.00;5056801;28;20021;-75
2021/09/27 10:48:16;;;;;;;8.68;6.00;;;;;;;21.36;nan;100641.31;5071006;28;20094;-75
2021/09/27 10:50:46;;;;;;;7.55;6.57;;;;;;;21.45;nan;100635.66;5053700;28;20055;-75
2021/09/27 10:53:25;;;;;;;8.95;6.32;;;;;;;21.51;nan;100635.63;5053973;28;20032;-75
2021/09/27 10:56:00;;;;;;;9.05;6.30;;;;;;;21.48;nan;100636.06;5071611;28;20123;-74
2021/09/27 10:58:51;;;;;;;9.40;6.90;;;;;;;21.55;nan;100642.22;5051395;28;20068;-75
2021/09/27 11:01:51;;;;;;;7.60;6.30;;;;;;;21.66;nan;100629.88;5053568;28;20504;-75
2021/09/27 11:04:29;;;;;;;6.60;5.70;;;;;;;21.76;nan;100623.97;5037723;28;20416;-75
2021/09/27 11:07:01;;;;;;;7.05;5.43;;;;;;;21.96;nan;100626.47;5070402;28;20032;-75
2021/09/27 11:09:28;;;;;;;7.82;5.50;;;;;;;21.99;nan;100626.00;5053406;28;20413;-75
2021/09/27 11:12:03;;;;;;;8.18;5.85;;;;;;;22.11;nan;100628.78;5070935;28;20039;-76
2021/09/27 11:14:40;;;;;;;6.90;6.05;;;;;;;22.16;nan;100624.34;5070381;28;20037;-75
2021/09/27 11:17:05;;;;;;;7.10;5.75;;;;;;;22.03;nan;100628.03;5052974;28;20083;-75
2021/09/27 11:19:33;;;;;;;7.63;5.67;;;;;;;22.20;nan;100620.19;5052839;28;20040;-75
2021/09/27 11:22:14;;;;;;;6.68;5.57;;;;;;;22.34;nan;100622.72;5069305;28;20604;-75
2021/09/27 11:24:42;;;;;;;6.15;5.22;;;;;;;22.38;nan;100623.91;5051841;28;20044;-75
2021/09/27 11:27:16;;;;;;;6.40;5.57;;;;;;;22.42;nan;100625.91;5070161;28;20094;-75
2021/09/27 11:29:47;;;;;;;7.82;5.75;;;;;;;22.58;nan;100624.47;5074387;28;20043;-75
2021/09/27 11:32:29;;;;;;;6.57;5.07;;;;;;;22.73;nan;100618.66;5090396;28;20043;-75
2021/09/27 11:34:57;;;;;;;7.18;5.50;;;;;;;22.71;nan;100614.53;5066165;28;20282;-75
2021/09/27 11:37:22;;;;;;;7.40;5.28;;;;;;;22.65;nan;100614.41;5064939;28;20115;-75
2021/09/27 11:40:07;;;;;;;6.22;5.15;;;;;;;22.69;nan;100603.97;5068649;28;20512;-76
2021/09/27 11:42:47;;;;;;;7.32;5.50;;;;;;;22.70;nan;100602.94;5050575;28;20037;-76
2021/09/27 11:45:40;;;;;;;5.68;4.88;;;;;;;22.72;nan;100605.41;5051890;28;20106;-75
2021/09/27 11:48:17;;;;;;;5.57;4.75;;;;;;;22.57;nan;100603.13;5068209;28;20063;-75
2021/09/27 11:51:03;;;;;;;5.95;4.50;;;;;;;22.65;nan;100603.63;5070578;28;20043;-75
2021/09/27 11:53:36;;;;;;;7.07;5.63;;;;;;;22.68;nan;100588.88;5070529;28;20067;-75
2021/09/27 11:56:21;;;;;;;7.07;5.25;;;;;;;22.78;nan;100596.38;5051938;28;20125;-75
2021/09/27 11:58:51;;;;;;;;;;;;;;;22.81;nan;100595.91;5048639;28;20040;-75
2021/09/27 12:01:30;;;;;;;5.28;3.53;;;;;;;22.94;nan;100597.59;5052422;28;19916;-75
2021/09/27 12:03:57;;;;;;;3.97;3.10;;;;;;;22.65;nan;100603.63;5069874;28;20036;-75
2021/09/27 12:06:30;;;;;;;3.95;3.00;;;;;;;22.22;nan;100598.44;5070109;28;20044;-75
2021/09/27 12:09:03;;;;;;;3.70;2.60;;;;;;;22.37;nan;100596.13;5052651;28;20036;-75
2021/09/27 12:11:33;;;;;;;3.28;2.58;;;;;;;22.48;nan;100592.69;5054705;28;20040;-75
2021/09/27 12:14:02;;;;;;;5.22;3.13;;;;;;;22.48;nan;100605.34;5071071;28;20568;-75
2021/09/27 12:16:32;;;;;;;3.10;2.80;;;;;;;22.14;nan;100591.44;5083923;28;20047;-75
2021/09/27 12:19:22;;;;;;;3.03;2.38;;;;;;;22.08;nan;100596.91;5064746;28;20028;-75
2021/09/27 12:22:05;;;;;;;4.13;2.78;;;;;;;21.97;nan;100596.59;5061124;28;20404;-75